Time;durP1;ratioP1;P1;durP2;ratioP2;P2;SDS_P1;SDS_P2;PMS_P1;PMS_P2;Temp;Humidity;BMP_temperature;BMP_pressure;BME280_temperature;BME280_humidity;BME280_pressure;Samples;Min_cycle;Max_cycle;Signal;HPM_P1;HPM_P2
2023/12/04 00:02:48;;;;;;;59.25;20.08;;;;;;;;;;6266068;28;20045;-56
2023/12/04 00:05:49;;;;;;;53.17;19.52;;;;;;;;;;6311377;28;20044;-56
2023/12/04 00:08:50;;;;;;;49.38;18.50;;;;;;;;;;6313436;28;20132;-57
2023/12/04 00:11:50;;;;;;;52.38;19.38;;;;;;;;;;6314382;28;20047;-56
2023/12/04 00:14:51;;;;;;;52.30;19.77;;;;;;;;;;6315098;28;20055;-55
2023/12/04 00:17:52;;;;;;;52.15;19.63;;;;;;;;;;6315007;28;20039;-56
2023/12/04 00:20:53;;;;;;;48.50;17.92;;;;;;;;;;6314545;28;20055;-57
2023/12/04 00:23:53;;;;;;;51.25;18.42;;;;;;;;;;6313876;28;20048;-58
2023/12/04 00:26:54;;;;;;;57.33;19.70;;;;;;;;;;6312337;28;20101;-54
2023/12/04 00:29:55;;;;;;;46.13;18.48;;;;;;;;;;6314949;28;20044;-56
2023/12/04 00:32:56;;;;;;;56.25;20.65;;;;;;;;;;6314432;28;20552;-55
2023/12/04 00:35:56;;;;;;;55.25;18.17;;;;;;;;;;6312750;28;20067;-56
2023/12/04 00:38:57;;;;;;;51.33;19.67;;;;;;;;;;6312348;28;20050;-56
2023/12/04 00:41:58;;;;;;;53.67;19.50;;;;;;;;;;6313454;28;20407;-56
2023/12/04 00:44:59;;;;;;;54.53;19.63;;;;;;;;;;6314447;28;20479;-55
2023/12/04 00:47:59;;;;;;;47.88;19.55;;;;;;;;;;6313417;28;20407;-57
2023/12/04 00:54:57;;;;;;;48.25;20.23;;;;;;;;;;6311103;28;20495;-56
2023/12/04 00:57:57;;;;;;;51.30;18.38;;;;;;;;;;6314182;28;20044;-56
2023/12/04 01:00:59;;;;;;;55.13;18.40;;;;;;;;;;6314029;28;20572;-54
2023/12/04 01:04:00;;;;;;;54.83;18.88;;;;;;;;;;6314131;28;20051;-55
2023/12/04 01:07:01;;;;;;;58.15;19.92;;;;;;;;;;6314297;28;20058;-56
2023/12/04 01:10:03;;;;;;;56.40;20.42;;;;;;;;;;6313511;28;20048;-52
2023/12/04 01:13:04;;;;;;;;;;;;;;;;;;6314648;28;20050;-55
2023/12/04 01:16:06;;;;;;;53.70;18.40;;;;;;;;;;6313527;28;20460;-52
2023/12/04 01:19:07;;;;;;;50.27;18.60;;;;;;;;;;6313314;28;20036;-55
2023/12/04 01:22:07;;;;;;;51.55;19.50;;;;;;;;;;6313829;28;20311;-53
2023/12/04 01:25:09;;;;;;;49.35;19.27;;;;;;;;;;6311933;28;20083;-55
2023/12/04 01:28:09;;;;;;;52.33;19.77;;;;;;;;;;6313751;28;20406;-54
2023/12/04 01:31:10;;;;;;;49.17;17.75;;;;;;;;;;6314142;28;20040;-56
2023/12/04 01:34:11;;;;;;;44.58;18.27;;;;;;;;;;6311971;28;20061;-57
2023/12/04 01:37:12;;;;;;;49.35;19.73;;;;;;;;;;6314141;28;20394;-54
2023/12/04 01:40:12;;;;;;;51.97;18.58;;;;;;;;;;6312915;28;20044;-54
2023/12/04 01:43:14;;;;;;;47.95;19.70;;;;;;;;;;6314099;28;20048;-55
2023/12/04 01:46:17;;;;;;;50.90;19.10;;;;;;;;;;6315128;28;20044;-56
2023/12/04 01:49:18;;;;;;;50.50;19.98;;;;;;;;;;6311367;28;20100;-56
2023/12/04 01:52:18;;;;;;;53.13;20.05;;;;;;;;;;6311096;28;20048;-55
2023/12/04 01:55:21;;;;;;;50.58;19.58;;;;;;;;;;6318988;28;20101;-54
2023/12/04 01:58:22;;;;;;;45.75;18.95;;;;;;;;;;6317630;28;20055;-55
2023/12/04 02:01:24;;;;;;;49.47;20.08;;;;;;;;;;6318225;28;20045;-54
2023/12/04 02:04:25;;;;;;;48.35;19.20;;;;;;;;;;6317785;28;20063;-55
2023/12/04 02:07:26;;;;;;;45.65;17.35;;;;;;;;;;6316974;28;20388;-56
2023/12/04 02:10:26;;;;;;;50.05;19.65;;;;;;;;;;6317975;28;20048;-53
2023/12/04 02:13:27;;;;;;;50.20;20.05;;;;;;;;;;6316044;28;20459;-55
2023/12/04 02:16:29;;;;;;;49.90;18.38;;;;;;;;;;6317674;28;20043;-53
2023/12/04 02:19:30;;;;;;;49.05;19.92;;;;;;;;;;6317498;28;20487;-55
2023/12/04 02:22:31;;;;;;;48.50;18.50;;;;;;;;;;6316977;28;20055;-52
2023/12/04 02:25:32;;;;;;;48.10;18.52;;;;;;;;;;6316025;28;20040;-56
2023/12/04 02:28:34;;;;;;;53.67;19.50;;;;;;;;;;6317549;28;20036;-56
2023/12/04 02:31:39;;;;;;;47.60;19.67;;;;;;;;;;6317060;28;20055;-54
2023/12/04 02:34:41;;;;;;;51.33;19.73;;;;;;;;;;6317707;28;20094;-55
2023/12/04 02:37:43;;;;;;;55.40;20.48;;;;;;;;;;6315698;28;20052;-54
2023/12/04 02:40:43;;;;;;;52.55;21.02;;;;;;;;;;6318739;28;20101;-54
2023/12/04 02:43:44;;;;;;;59.00;20.67;;;;;;;;;;6315595;28;20082;-55
2023/12/04 02:46:45;;;;;;;54.38;20.23;;;;;;;;;;6316866;28;20404;-56
2023/12/04 02:49:46;;;;;;;59.88;22.38;;;;;;;;;;6314757;28;20048;-58
2023/12/04 02:52:46;;;;;;;53.45;19.73;;;;;;;;;;6318594;28;20054;-55
2023/12/04 02:55:47;;;;;;;57.83;20.90;;;;;;;;;;6316016;28;20414;-58
2023/12/04 02:58:47;;;;;;;53.70;20.92;;;;;;;;;;6317150;28;20055;-54
2023/12/04 03:01:48;;;;;;;51.72;20.42;;;;;;;;;;6315645;28;20476;-54
2023/12/04 03:04:49;;;;;;;59.63;21.85;;;;;;;;;;6316831;28;20059;-57
2023/12/04 03:07:49;;;;;;;56.42;20.58;;;;;;;;;;6315873;28;20276;-53
2023/12/04 03:10:50;;;;;;;55.00;20.48;;;;;;;;;;6313943;28;20414;-53
2023/12/04 03:13:51;;;;;;;58.20;20.48;;;;;;;;;;6316718;28;20436;-53
2023/12/04 03:16:51;;;;;;;58.30;20.35;;;;;;;;;;6317145;28;20079;-52
2023/12/04 03:19:52;;;;;;;54.53;22.08;;;;;;;;;;6316388;28;20044;-52
2023/12/04 03:22:53;;;;;;;61.38;22.33;;;;;;;;;;6316609;28;20055;-55
2023/12/04 03:25:54;;;;;;;50.17;20.10;;;;;;;;;;6315530;28;20135;-55
2023/12/04 03:28:54;;;;;;;53.28;21.05;;;;;;;;;;6316494;28;20044;-55
2023/12/04 03:31:55;;;;;;;50.80;21.38;;;;;;;;;;6316217;28;20506;-53
2023/12/04 03:34:56;;;;;;;54.08;19.90;;;;;;;;;;6316193;28;20036;-56
2023/12/04 03:37:56;;;;;;;58.00;20.58;;;;;;;;;;6313801;28;20072;-56
2023/12/04 03:40:57;;;;;;;49.55;17.45;;;;;;;;;;6315621;28;20052;-54
2023/12/04 03:43:58;;;;;;;48.20;16.45;;;;;;;;;;6316792;28;20044;-54
2023/12/04 03:46:58;;;;;;;38.78;14.75;;;;;;;;;;6316252;28;20040;-55
2023/12/04 03:49:59;;;;;;;39.63;15.30;;;;;;;;;;6314457;28;20048;-55
2023/12/04 03:52:59;;;;;;;39.75;14.63;;;;;;;;;;6315387;28;20428;-54
2023/12/04 03:56:00;;;;;;;42.85;15.07;;;;;;;;;;6314305;28;20063;-54
2023/12/04 03:59:01;;;;;;;37.20;14.50;;;;;;;;;;6315719;28;20056;-54
2023/12/04 04:02:02;;;;;;;40.72;15.32;;;;;;;;;;6297612;28;20072;-52
2023/12/04 04:05:02;;;;;;;36.92;14.45;;;;;;;;;;6315683;28;20052;-55
2023/12/04 04:08:05;;;;;;;34.83;14.48;;;;;;;;;;6313606;28;20101;-52
2023/12/04 04:11:06;;;;;;;38.05;15.07;;;;;;;;;;6314965;28;20048;-55
2023/12/04 04:14:07;;;;;;;40.07;15.37;;;;;;;;;;6315356;28;20076;-56
2023/12/04 04:17:07;;;;;;;36.92;15.20;;;;;;;;;;6314632;28;20043;-54
2023/12/04 04:20:08;;;;;;;41.97;16.13;;;;;;;;;;6315690;28;20064;-55
2023/12/04 04:23:10;;;;;;;36.97;15.50;;;;;;;;;;6315083;28;20051;-52
2023/12/04 04:26:11;;;;;;;41.17;16.30;;;;;;;;;;6314230;28;20388;-55
2023/12/04 04:29:12;;;;;;;43.85;16.95;;;;;;;;;;6315929;28;20067;-53
2023/12/04 04:32:12;;;;;;;47.83;18.83;;;;;;;;;;6314642;28;20083;-52
2023/12/04 04:35:13;;;;;;;44.03;17.08;;;;;;;;;;6313368;28;20403;-55
2023/12/04 04:38:14;;;;;;;41.55;16.15;;;;;;;;;;6313154;28;20044;-55
2023/12/04 04:41:17;;;;;;;70.97;26.42;;;;;;;;;;6314097;28;20109;-56
2023/12/04 04:44:18;;;;;;;54.72;21.08;;;;;;;;;;6314606;28;20410;-56
2023/12/04 04:47:19;;;;;;;43.00;17.90;;;;;;;;;;6313028;28;20051;-55
2023/12/04 04:50:20;;;;;;;48.67;18.23;;;;;;;;;;6312849;28;20044;-56
2023/12/04 04:53:21;;;;;;;40.97;16.15;;;;;;;;;;6313543;28;20051;-55
2023/12/04 04:56:22;;;;;;;46.42;17.30;;;;;;;;;;6313704;28;20043;-54
2023/12/04 04:59:23;;;;;;;43.65;17.67;;;;;;;;;;6313524;28;20048;-53
2023/12/04 05:02:23;;;;;;;43.30;18.05;;;;;;;;;;6313547;28;20048;-52
2023/12/04 05:05:24;;;;;;;38.60;16.88;;;;;;;;;;6312173;28;20544;-52
2023/12/04 05:08:25;;;;;;;42.92;16.85;;;;;;;;;;6311972;28;20043;-55
2023/12/04 05:11:25;;;;;;;45.50;16.48;;;;;;;;;;6312015;28;20786;-56
2023/12/04 05:14:27;;;;;;;43.58;18.17;;;;;;;;;;6311963;28;20071;-53
2023/12/04 05:17:27;;;;;;;43.42;16.80;;;;;;;;;;6312492;28;20708;-51
2023/12/04 05:20:28;;;;;;;43.17;18.23;;;;;;;;;;6313370;28;20036;-54
2023/12/04 05:23:29;;;;;;;44.17;17.65;;;;;;;;;;6314271;28;20089;-54
2023/12/04 05:26:29;;;;;;;48.85;18.95;;;;;;;;;;6310030;28;20040;-52
2023/12/04 05:29:30;;;;;;;45.55;17.20;;;;;;;;;;6313555;28;20048;-55
2023/12/04 05:32:31;;;;;;;45.20;17.63;;;;;;;;;;6313514;28;20067;-51
2023/12/04 05:35:36;;;;;;;55.92;20.80;;;;;;;;;;6314202;28;20483;-55
2023/12/04 05:38:36;;;;;;;60.15;20.73;;;;;;;;;;6309582;28;20611;-56
2023/12/04 05:41:37;;;;;;;66.28;21.77;;;;;;;;;;6312329;28;20047;-56
2023/12/04 05:44:38;;;;;;;64.05;21.15;;;;;;;;;;6313596;28;20050;-56
2023/12/04 05:47:38;;;;;;;58.63;21.25;;;;;;;;;;6313635;28;20048;-55
2023/12/04 05:50:39;;;;;;;61.42;20.10;;;;;;;;;;6302402;28;20072;-54
2023/12/04 05:53:39;;;;;;;59.03;21.15;;;;;;;;;;6310910;28;20048;-54
2023/12/04 05:56:40;;;;;;;63.63;21.27;;;;;;;;;;6313129;28;20052;-52
2023/12/04 05:59:41;;;;;;;63.40;22.40;;;;;;;;;;6309676;28;20055;-52
2023/12/04 06:02:43;;;;;;;57.85;22.98;;;;;;;;;;6310271;28;20059;-55
2023/12/04 06:05:43;;;;;;;58.97;24.52;;;;;;;;;;6310837;28;20048;-55
2023/12/04 06:08:44;;;;;;;67.47;25.98;;;;;;;;;;6310375;28;20189;-52
2023/12/04 06:11:45;;;;;;;58.80;24.95;;;;;;;;;;6310804;28;20048;-55
2023/12/04 06:14:46;;;;;;;54.28;23.13;;;;;;;;;;6312508;28;20672;-53
2023/12/04 06:17:46;;;;;;;55.13;23.50;;;;;;;;;;6312846;28;20048;-54
2023/12/04 06:20:47;;;;;;;62.05;23.63;;;;;;;;;;6311898;28;20048;-55
2023/12/04 06:23:48;;;;;;;63.30;23.92;;;;;;;;;;6313735;28;20059;-57
2023/12/04 06:26:50;;;;;;;63.85;23.75;;;;;;;;;;6313152;28;20052;-53
2023/12/04 06:29:51;;;;;;;63.30;24.77;;;;;;;;;;6313286;28;20066;-52
2023/12/04 06:32:52;;;;;;;60.90;23.25;;;;;;;;;;6313171;28;20130;-52
2023/12/04 06:35:53;;;;;;;55.85;21.33;;;;;;;;;;6314081;28;20063;-54
2023/12/04 06:38:55;;;;;;;53.88;21.52;;;;;;;;;;6311111;28;20056;-57
2023/12/04 06:41:56;;;;;;;60.63;22.08;;;;;;;;;;6315672;28;20047;-54
2023/12/04 06:44:57;;;;;;;61.10;22.92;;;;;;;;;;6318216;28;20496;-55
2023/12/04 06:47:58;;;;;;;67.88;22.67;;;;;;;;;;6317864;28;20044;-55
2023/12/04 06:50:59;;;;;;;59.40;24.40;;;;;;;;;;6317343;28;20493;-54
2023/12/04 06:54:00;;;;;;;65.80;22.75;;;;;;;;;;6317870;28;20048;-56
2023/12/04 06:57:01;;;;;;;56.92;22.83;;;;;;;;;;6316699;28;20040;-53
2023/12/04 07:00:03;;;;;;;53.05;20.00;;;;;;;;;;6314472;28;20044;-54
2023/12/04 07:03:03;;;;;;;65.78;22.98;;;;;;;;;;6317544;28;20051;-51
2023/12/04 07:06:05;;;;;;;60.63;22.52;;;;;;;;;;6313640;28;20048;-55
2023/12/04 07:09:09;;;;;;;52.83;20.97;;;;;;;;;;6294679;28;20054;-55
2023/12/04 07:12:10;;;;;;;50.42;19.45;;;;;;;;;;6316529;28;20048;-54
2023/12/04 07:15:12;;;;;;;57.58;22.52;;;;;;;;;;6313564;28;20697;-54
2023/12/04 07:18:12;;;;;;;62.13;22.25;;;;;;;;;;6311271;28;20915;-53
2023/12/04 07:21:13;;;;;;;60.80;23.33;;;;;;;;;;6316271;28;20044;-55
2023/12/04 07:24:14;;;;;;;56.92;22.60;;;;;;;;;;6315754;28;20040;-55
2023/12/04 07:27:16;;;;;;;56.60;24.10;;;;;;;;;;6297477;28;20490;-56
2023/12/04 07:30:17;;;;;;;62.67;23.65;;;;;;;;;;6313719;28;20063;-54
2023/12/04 07:33:17;;;;;;;58.72;22.40;;;;;;;;;;6312884;28;20468;-53
2023/12/04 07:36:18;;;;;;;52.15;20.63;;;;;;;;;;6314763;28;20048;-54
2023/12/04 07:39:20;;;;;;;51.08;22.13;;;;;;;;;;6311822;28;20044;-54
2023/12/04 07:42:21;;;;;;;58.72;23.75;;;;;;;;;;6314893;28;20808;-51
2023/12/04 07:45:22;;;;;;;56.28;24.00;;;;;;;;;;6315268;28;20056;-53
2023/12/04 07:48:22;;;;;;;75.15;28.55;;;;;;;;;;6296758;28;20047;-54
2023/12/04 07:51:23;;;;;;;80.95;32.00;;;;;;;;;;6315755;28;20051;-55
2023/12/04 07:54:26;;;;;;;63.22;24.77;;;;;;;;;;6316589;28;20059;-53
2023/12/04 07:57:26;;;;;;;82.60;32.10;;;;;;;;;;6312858;28;20443;-54
2023/12/04 08:00:27;;;;;;;96.88;41.50;;;;;;;;;;6315154;28;20044;-55
2023/12/04 08:03:28;;;;;;;95.25;38.72;;;;;;;;;;6314152;28;20048;-54
2023/12/04 08:06:29;;;;;;;89.45;36.03;;;;;;;;;;6315061;28;20047;-55
2023/12/04 08:09:30;;;;;;;95.22;36.42;;;;;;;;;;6314536;28;20398;-55
2023/12/04 08:12:31;;;;;;;114.70;42.65;;;;;;;;;;6315299;28;20047;-55
2023/12/04 08:15:32;;;;;;;124.38;46.42;;;;;;;;;;6314268;28;20044;-56
2023/12/04 08:18:32;;;;;;;113.55;44.30;;;;;;;;;;6311669;28;20044;-56
2023/12/04 08:21:34;;;;;;;116.82;43.92;;;;;;;;;;6313486;28;20048;-55
2023/12/04 08:24:35;;;;;;;105.63;41.17;;;;;;;;;;6316618;28;20498;-55
2023/12/04 08:27:36;;;;;;;93.38;37.30;;;;;;;;;;6315872;28;20087;-57
2023/12/04 08:30:36;;;;;;;77.53;30.90;;;;;;;;;;6314667;28;20047;-54
2023/12/04 08:33:37;;;;;;;78.88;32.78;;;;;;;;;;6297174;28;20059;-55
2023/12/04 08:36:37;;;;;;;82.88;32.63;;;;;;;;;;6313996;28;20055;-52
2023/12/04 08:39:38;;;;;;;82.85;34.03;;;;;;;;;;6312938;28;20048;-53
2023/12/04 08:42:39;;;;;;;70.40;28.85;;;;;;;;;;6313446;28;20106;-53
2023/12/04 08:45:40;;;;;;;68.78;28.25;;;;;;;;;;6315492;28;20547;-55
2023/12/04 08:48:41;;;;;;;58.10;24.50;;;;;;;;;;6314177;28;20043;-56
2023/12/04 08:51:41;;;;;;;54.75;22.92;;;;;;;;;;6314989;28;20058;-57
2023/12/04 08:54:42;;;;;;;55.45;23.20;;;;;;;;;;6314978;28;20052;-53
2023/12/04 08:57:43;;;;;;;58.15;23.58;;;;;;;;;;6313211;28;20380;-56
2023/12/04 09:00:44;;;;;;;60.85;25.25;;;;;;;;;;6312955;28;20044;-54
2023/12/04 09:03:44;;;;;;;51.08;22.08;;;;;;;;;;6314143;28;20503;-55
2023/12/04 09:06:45;;;;;;;46.92;21.10;;;;;;;;;;6315318;28;20054;-53
2023/12/04 09:09:46;;;;;;;55.42;21.23;;;;;;;;;;6314791;28;20098;-51
2023/12/04 09:12:46;;;;;;;55.65;22.15;;;;;;;;;;6314998;28;20044;-54
2023/12/04 09:15:47;;;;;;;44.17;18.98;;;;;;;;;;6315137;28;20519;-54
2023/12/04 09:18:47;;;;;;;46.65;19.10;;;;;;;;;;6314219;28;20048;-53
2023/12/04 09:21:48;;;;;;;62.00;24.52;;;;;;;;;;6314054;28;20051;-53
2023/12/04 09:24:49;;;;;;;60.80;24.60;;;;;;;;;;6314541;28;20048;-52
2023/12/04 09:27:50;;;;;;;68.78;27.08;;;;;;;;;;6314561;28;20506;-54
2023/12/04 09:30:51;;;;;;;68.25;26.13;;;;;;;;;;6312446;28;20051;-55
2023/12/04 09:33:52;;;;;;;56.72;24.60;;;;;;;;;;6312556;28;20055;-54
2023/12/04 09:36:52;;;;;;;70.90;25.65;;;;;;;;;;6314727;28;20121;-55
2023/12/04 09:39:53;;;;;;;61.60;25.83;;;;;;;;;;6312534;28;20063;-52
2023/12/04 09:42:54;;;;;;;64.25;26.73;;;;;;;;;;6313098;28;20406;-53
2023/12/04 09:45:55;;;;;;;117.53;42.88;;;;;;;;;;6314703;28;20051;-56
2023/12/04 09:48:56;;;;;;;105.15;39.80;;;;;;;;;;6313717;28;20051;-53
2023/12/04 09:51:58;;;;;;;78.80;31.70;;;;;;;;;;6312442;28;20089;-56
2023/12/04 09:54:58;;;;;;;62.78;26.40;;;;;;;;;;6313969;28;20040;-53
2023/12/04 09:57:59;;;;;;;62.00;24.27;;;;;;;;;;6314057;28;20059;-54
2023/12/04 10:01:01;;;;;;;70.10;26.48;;;;;;;;;;6312040;28;20059;-52
2023/12/04 10:04:05;;;;;;;61.67;25.30;;;;;;;;;;6313857;28;20112;-54
2023/12/04 10:07:05;;;;;;;64.93;24.60;;;;;;;;;;6314329;28;20043;-53
2023/12/04 10:10:07;;;;;;;44.35;18.35;;;;;;;;;;6313061;28;20631;-54
2023/12/04 10:13:08;;;;;;;42.78;18.40;;;;;;;;;;6312090;28;20040;-54
2023/12/04 10:16:09;;;;;;;42.08;17.95;;;;;;;;;;6300236;28;20052;-53
2023/12/04 10:19:17;;;;;;;42.60;19.63;;;;;;;;;;6318906;28;20569;-54
2023/12/04 10:22:18;;;;;;;40.70;19.17;;;;;;;;;;6318207;28;20368;-51
2023/12/04 10:25:19;;;;;;;47.75;18.92;;;;;;;;;;6319097;28;20047;-56
2023/12/04 10:28:20;;;;;;;49.17;19.92;;;;;;;;;;6316794;28;20453;-57
2023/12/04 10:31:23;;;;;;;51.60;20.85;;;;;;;;;;6316595;28;20097;-56
2023/12/04 10:34:26;;;;;;;45.40;20.42;;;;;;;;;;6317563;28;20039;-56
2023/12/04 10:37:29;;;;;;;50.83;21.33;;;;;;;;;;6306624;28;20446;-54
2023/12/04 10:40:31;;;;;;;52.97;20.92;;;;;;;;;;6318490;28;20066;-56
2023/12/04 10:43:32;;;;;;;49.10;19.55;;;;;;;;;;6317220;28;20052;-56
2023/12/04 10:46:36;;;;;;;45.45;19.20;;;;;;;;;;6316338;28;20044;-53
2023/12/04 10:49:37;;;;;;;40.28;17.50;;;;;;;;;;6317351;28;20052;-55
2023/12/04 10:52:40;;;;;;;43.63;18.85;;;;;;;;;;6319693;28;20127;-53
2023/12/04 10:55:42;;;;;;;39.63;18.48;;;;;;;;;;6318453;28;20052;-54
2023/12/04 10:58:44;;;;;;;49.40;20.42;;;;;;;;;;6316396;28;20173;-55
2023/12/04 11:01:46;;;;;;;45.90;18.00;;;;;;;;;;6316114;28;20068;-55
2023/12/04 11:04:48;;;;;;;;;;;;;;;;;;6318239;28;20062;-57
2023/12/04 11:07:52;;;;;;;80.68;27.77;;;;;;;;;;6320072;28;19931;-57
2023/12/04 11:11:02;;;;;;;54.50;22.08;;;;;;;;;;6315715;28;20145;-56
2023/12/04 11:14:05;;;;;;;48.63;19.40;;;;;;;;;;6316720;28;20775;-56
2023/12/04 11:17:11;;;;;;;50.33;20.75;;;;;;;;;;6317034;28;20042;-54
2023/12/04 11:20:16;;;;;;;52.78;23.90;;;;;;;;;;6317676;28;20130;-52
2023/12/04 11:23:17;;;;;;;53.45;21.45;;;;;;;;;;6316841;28;20498;-53
2023/12/04 11:26:19;;;;;;;57.30;23.50;;;;;;;;;;6317218;28;20501;-53
2023/12/04 11:29:21;;;;;;;;;;;;;;;;;;6318424;28;20147;-54
2023/12/04 11:32:27;;;;;;;49.35;19.60;;;;;;;;;;6317170;28;19924;-55
2023/12/04 11:35:28;;;;;;;51.95;20.92;;;;;;;;;;6315921;28;20047;-55
2023/12/04 11:38:30;;;;;;;53.58;21.73;;;;;;;;;;6315730;28;20039;-56
2023/12/04 11:45:48;;;;;;;53.00;21.98;;;;;;;;;;6317156;28;20495;-54
2023/12/04 11:49:28;;;;;;;50.80;21.88;;;;;;;;;;6315832;28;20044;-53
2023/12/04 11:52:34;;;;;;;50.60;23.15;;;;;;;;;;6307613;28;20051;-55
2023/12/04 11:55:40;;;;;;;52.67;24.00;;;;;;;;;;6316761;28;20052;-56
2023/12/04 11:58:45;;;;;;;59.13;24.20;;;;;;;;;;6314705;28;20040;-54
2023/12/04 12:01:50;;;;;;;79.22;30.23;;;;;;;;;;6314590;28;20113;-52
2023/12/04 12:04:54;;;;;;;86.45;32.40;;;;;;;;;;6315991;28;20483;-56
2023/12/04 12:07:55;;;;;;;60.08;23.98;;;;;;;;;;6316326;28;20123;-52
2023/12/04 12:10:57;;;;;;;64.38;27.55;;;;;;;;;;6315829;28;20062;-54
2023/12/04 12:14:01;;;;;;;;;;;;;;;;;;6315393;28;20048;-54
2023/12/04 12:17:02;;;;;;;57.55;23.90;;;;;;;;;;6313322;28;19996;-55
2023/12/04 12:20:06;;;;;;;54.05;23.10;;;;;;;;;;6315404;28;20489;-52
2023/12/04 12:23:08;;;;;;;55.22;24.20;;;;;;;;;;6311656;28;20040;-56
2023/12/04 12:26:09;;;;;;;57.38;25.52;;;;;;;;;;6314994;28;20048;-53
2023/12/04 12:29:11;;;;;;;75.55;31.15;;;;;;;;;;6315472;28;20037;-57
2023/12/04 12:32:11;;;;;;;67.72;26.05;;;;;;;;;;6314505;28;20058;-56
2023/12/04 12:35:12;;;;;;;55.13;24.33;;;;;;;;;;6313048;28;20048;-54
2023/12/04 12:38:13;;;;;;;57.00;24.13;;;;;;;;;;6314142;28;20054;-57
2023/12/04 12:41:16;;;;;;;61.95;25.85;;;;;;;;;;6314470;28;20044;-54
2023/12/04 12:44:17;;;;;;;65.07;27.77;;;;;;;;;;6314339;28;20042;-54
2023/12/04 12:47:17;;;;;;;70.22;29.38;;;;;;;;;;6314310;28;20040;-57
2023/12/04 12:50:18;;;;;;;63.67;28.08;;;;;;;;;;6315762;28;20044;-54
2023/12/04 12:53:19;;;;;;;73.57;30.10;;;;;;;;;;6313445;28;20380;-53
2023/12/04 12:56:21;;;;;;;73.45;31.33;;;;;;;;;;6314866;28;20463;-55
2023/12/04 12:59:22;;;;;;;66.53;26.08;;;;;;;;;;6315883;28;20109;-55
2023/12/04 13:02:22;;;;;;;64.90;27.50;;;;;;;;;;6314444;28;20805;-55
2023/12/04 13:05:23;;;;;;;64.05;26.63;;;;;;;;;;6315405;28;20055;-55
2023/12/04 13:08:24;;;;;;;65.43;26.98;;;;;;;;;;6315210;28;20170;-56
2023/12/04 13:11:24;;;;;;;53.13;23.73;;;;;;;;;;6312567;28;20044;-54
2023/12/04 13:14:25;;;;;;;50.17;22.60;;;;;;;;;;6315189;28;20054;-56
2023/12/04 13:17:26;;;;;;;52.83;22.92;;;;;;;;;;6316788;28;20048;-55
2023/12/04 13:20:27;;;;;;;49.88;22.00;;;;;;;;;;6314772;28;20522;-58
2023/12/04 13:23:27;;;;;;;52.17;22.20;;;;;;;;;;6312351;28;20086;-57
2023/12/04 13:26:28;;;;;;;56.03;24.52;;;;;;;;;;6314135;28;20052;-55
2023/12/04 13:29:29;;;;;;;56.30;25.10;;;;;;;;;;6312928;28;20814;-53
2023/12/04 13:32:29;;;;;;;62.30;25.63;;;;;;;;;;6313885;28;20044;-55
2023/12/04 13:35:30;;;;;;;60.20;25.75;;;;;;;;;;6311179;28;21016;-55
2023/12/04 13:38:31;;;;;;;58.55;24.98;;;;;;;;;;6309343;28;20113;-59
2023/12/04 13:44:51;;;;;;;58.45;24.65;;;;;;;;;;6302231;28;20056;-55
2023/12/04 13:47:53;;;;;;;57.03;23.20;;;;;;;;;;6303457;28;20063;-56
2023/12/04 13:50:54;;;;;;;57.63;23.60;;;;;;;;;;6299343;28;20075;-55
2023/12/04 13:54:02;;;;;;;51.85;22.65;;;;;;;;;;6303525;28;20040;-52
2023/12/04 13:57:04;;;;;;;52.95;20.38;;;;;;;;;;6301345;28;20059;-57
2023/12/04 14:00:05;;;;;;;46.13;20.50;;;;;;;;;;6302441;28;20171;-55
2023/12/04 14:03:07;;;;;;;42.17;19.73;;;;;;;;;;6300514;28;20052;-53
2023/12/04 14:06:08;;;;;;;41.40;17.57;;;;;;;;;;6303867;28;20074;-53
2023/12/04 14:09:14;;;;;;;46.20;18.75;;;;;;;;;;6301352;28;20056;-54
2023/12/04 14:12:16;;;;;;;41.25;17.67;;;;;;;;;;6303332;28;20044;-55
2023/12/04 14:15:16;;;;;;;50.20;21.40;;;;;;;;;;6302074;28;20485;-57
2023/12/04 14:18:17;;;;;;;55.72;21.08;;;;;;;;;;6303132;28;20048;-56
2023/12/04 14:21:18;;;;;;;58.80;22.80;;;;;;;;;;6300816;28;20043;-55
2023/12/04 14:24:19;;;;;;;52.40;20.85;;;;;;;;;;6302078;28;21699;-56
2023/12/04 14:27:19;;;;;;;55.65;21.40;;;;;;;;;;6302896;28;20119;-55
2023/12/04 14:30:20;;;;;;;51.38;21.48;;;;;;;;;;6301434;28;20063;-57
2023/12/04 14:33:21;;;;;;;45.50;19.40;;;;;;;;;;6302332;28;20056;-57
2023/12/04 14:36:21;;;;;;;49.78;21.48;;;;;;;;;;6301114;28;20060;-55
2023/12/04 14:39:23;;;;;;;58.17;24.60;;;;;;;;;;6301257;28;20552;-56
2023/12/04 14:42:25;;;;;;;64.13;26.88;;;;;;;;;;6302096;28;20471;-57
2023/12/04 14:45:26;;;;;;;55.75;23.48;;;;;;;;;;6300855;28;20100;-55
2023/12/04 14:48:26;;;;;;;53.10;26.10;;;;;;;;;;6300754;28;20048;-55
2023/12/04 14:51:29;;;;;;;49.60;19.95;;;;;;;;;;6300842;28;20043;-56
2023/12/04 14:55:47;;;;;;;52.47;20.08;;;;;;;;;;6302619;28;20184;-51
2023/12/04 15:17:32;;;;;;;57.80;22.33;;;;;;;;;;6304542;28;20047;-52
2023/12/04 15:20:38;;;;;;;49.00;20.67;;;;;;;;;;6303099;28;20044;-54
2023/12/04 15:23:38;;;;;;;51.50;21.10;;;;;;;;;;6305407;28;20565;-55
2023/12/04 15:26:39;;;;;;;58.55;22.27;;;;;;;;;;6306312;28;20044;-54
2023/12/04 15:29:41;;;;;;;53.08;22.70;;;;;;;;;;6303818;28;20056;-52
2023/12/04 15:32:41;;;;;;;54.00;22.92;;;;;;;;;;6303658;28;20048;-53
2023/12/04 15:35:42;;;;;;;56.88;22.60;;;;;;;;;;6307712;28;20139;-56
2023/12/04 15:38:44;;;;;;;64.47;23.67;;;;;;;;;;6304557;28;20044;-56
2023/12/04 15:41:45;;;;;;;63.50;26.02;;;;;;;;;;6305926;28;20051;-55
2023/12/04 15:44:45;;;;;;;63.83;23.80;;;;;;;;;;6305487;28;20102;-51
2023/12/04 15:47:46;;;;;;;55.35;23.60;;;;;;;;;;6304998;28;20036;-55
2023/12/04 15:50:47;;;;;;;56.80;23.05;;;;;;;;;;6302098;28;21170;-55
2023/12/04 15:53:49;;;;;;;56.28;22.05;;;;;;;;;;6303574;28;20047;-56
2023/12/04 15:56:49;;;;;;;54.08;21.50;;;;;;;;;;6303123;28;20068;-56
2023/12/04 15:59:50;;;;;;;55.35;21.38;;;;;;;;;;6302002;28;20475;-58
2023/12/04 16:02:51;;;;;;;55.45;22.05;;;;;;;;;;6304151;28;20036;-52
2023/12/04 16:05:52;;;;;;;52.75;22.00;;;;;;;;;;6308113;28;20422;-58
2023/12/04 16:08:56;;;;;;;57.97;23.08;;;;;;;;;;6304710;28;20056;-61
2023/12/04 16:11:57;;;;;;;50.65;22.77;;;;;;;;;;6305989;28;20043;-61
2023/12/04 16:14:58;;;;;;;52.67;21.02;;;;;;;;;;6307510;28;20055;-61
2023/12/04 16:17:58;;;;;;;52.20;21.30;;;;;;;;;;6306859;28;20488;-61
2023/12/04 16:20:59;;;;;;;56.97;22.25;;;;;;;;;;6305074;28;20036;-61
2023/12/04 16:24:02;;;;;;;54.28;21.45;;;;;;;;;;6303066;28;20073;-61
2023/12/04 16:27:05;;;;;;;47.78;20.27;;;;;;;;;;6307261;28;20399;-61
2023/12/04 16:30:07;;;;;;;54.78;21.88;;;;;;;;;;6310466;28;20193;-61
2023/12/04 16:33:08;;;;;;;54.63;21.15;;;;;;;;;;6317069;28;20051;-61
2023/12/04 16:36:10;;;;;;;45.75;19.17;;;;;;;;;;6316439;28;20048;-61
2023/12/04 16:39:11;;;;;;;47.28;18.85;;;;;;;;;;6292774;28;20043;-61
2023/12/04 16:42:12;;;;;;;49.20;18.63;;;;;;;;;;6312226;28;20509;-61
2023/12/04 16:45:13;;;;;;;48.55;18.20;;;;;;;;;;6314800;28;20127;-60
2023/12/04 16:48:14;;;;;;;46.80;18.55;;;;;;;;;;6315179;28;20470;-61
2023/12/04 16:51:14;;;;;;;44.50;18.60;;;;;;;;;;6311872;28;20056;-61
2023/12/04 16:54:15;;;;;;;47.35;20.85;;;;;;;;;;6312582;28;20117;-61
2023/12/04 16:57:16;;;;;;;47.72;20.23;;;;;;;;;;6312384;28;20908;-62
2023/12/04 17:00:17;;;;;;;48.42;21.05;;;;;;;;;;6312103;28;20042;-62
2023/12/04 17:03:17;;;;;;;53.20;20.90;;;;;;;;;;6313954;28;20048;-61
2023/12/04 17:06:19;;;;;;;51.50;20.23;;;;;;;;;;6314990;28;20495;-61
2023/12/04 17:09:19;;;;;;;52.10;20.60;;;;;;;;;;6315050;28;20054;-61
2023/12/04 17:12:20;;;;;;;49.63;20.48;;;;;;;;;;6314350;28;20068;-61
2023/12/04 17:15:21;;;;;;;49.38;19.63;;;;;;;;;;6314398;28;20059;-61
2023/12/04 17:18:21;;;;;;;50.28;20.65;;;;;;;;;;6315130;28;20084;-61
2023/12/04 17:21:23;;;;;;;52.15;21.15;;;;;;;;;;6313740;28;20461;-61
2023/12/04 17:24:23;;;;;;;51.47;20.65;;;;;;;;;;6314138;28;20048;-62
2023/12/04 17:27:24;;;;;;;56.95;21.83;;;;;;;;;;6314678;28;20173;-61
2023/12/04 17:30:25;;;;;;;51.88;19.98;;;;;;;;;;6313794;28;20048;-61
2023/12/04 17:33:26;;;;;;;50.28;19.50;;;;;;;;;;6314499;28;20051;-61
2023/12/04 17:36:27;;;;;;;49.35;20.50;;;;;;;;;;6312063;28;20052;-61
2023/12/04 17:39:28;;;;;;;51.38;21.67;;;;;;;;;;6314079;28;20036;-62
2023/12/04 17:42:28;;;;;;;52.45;21.88;;;;;;;;;;6313600;28;20770;-61
2023/12/04 17:45:32;;;;;;;58.38;24.00;;;;;;;;;;6314304;28;20067;-61
2023/12/04 17:48:33;;;;;;;54.22;22.75;;;;;;;;;;6313967;28;20480;-61
2023/12/04 17:51:33;;;;;;;55.15;23.40;;;;;;;;;;6313082;28;20040;-61
2023/12/04 17:54:36;;;;;;;55.72;24.17;;;;;;;;;;6314733;28;20056;-61
2023/12/04 17:57:37;;;;;;;;;;;;;;;;;;6315887;28;20056;-61
2023/12/04 18:00:38;;;;;;;48.83;21.25;;;;;;;;;;6315980;28;20370;-61
2023/12/04 18:03:38;;;;;;;55.03;22.50;;;;;;;;;;6312579;28;20086;-61
2023/12/04 18:06:39;;;;;;;53.25;23.48;;;;;;;;;;6315166;28;20044;-61
2023/12/04 18:09:40;;;;;;;52.05;23.65;;;;;;;;;;6312017;28;20052;-61